sensor_id;sensor_type;location;lat;lon;timestamp;pressure;altitude;pressure_sealevel;temperature;humidity
12666;BME280;58531;59.050;17.416;2023-05-03T00:00:07;101264.50;;;1.75;100.00
12666;BME280;58531;59.050;17.416;2023-05-03T00:02:36;101272.66;;;1.66;100.00
12666;BME280;58531;59.050;17.416;2023-05-03T00:05:05;101276.31;;;1.58;100.00
12666;BME280;58531;59.050;17.416;2023-05-03T00:07:32;101276.25;;;1.51;100.00
12666;BME280;58531;59.050;17.416;2023-05-03T00:09:59;101274.66;;;1.43;100.00
12666;BME280;58531;59.050;17.416;2023-05-03T00:12:26;101271.56;;;1.38;100.00
12666;BME280;58531;59.050;17.416;2023-05-03T00:14:53;101277.13;;;1.33;100.00
12666;BME280;58531;59.050;17.416;2023-05-03T00:17:19;101276.69;;;1.27;100.00
12666;BME280;58531;59.050;17.416;2023-05-03T00:19:48;101275.13;;;1.23;100.00
12666;BME280;58531;59.050;17.416;2023-05-03T00:22:15;101275.03;;;1.16;100.00
12666;BME280;58531;59.050;17.416;2023-05-03T00:24:42;101275.66;;;1.10;100.00
12666;BME280;58531;59.050;17.416;2023-05-03T00:27:09;101280.88;;;1.06;100.00
12666;BME280;58531;59.050;17.416;2023-05-03T00:29:35;101287.97;;;1.02;100.00
12666;BME280;58531;59.050;17.416;2023-05-03T00:32:02;101280.06;;;1.02;100.00
12666;BME280;58531;59.050;17.416;2023-05-03T00:34:29;101276.31;;;1.00;100.00
12666;BME280;58531;59.050;17.416;2023-05-03T00:36:57;101283.44;;;1.03;100.00
12666;BME280;58531;59.050;17.416;2023-05-03T00:39:28;101283.78;;;0.98;100.00
12666;BME280;58531;59.050;17.416;2023-05-03T00:41:55;101277.63;;;0.90;100.00
12666;BME280;58531;59.050;17.416;2023-05-03T00:44:23;101274.19;;;0.86;100.00
12666;BME280;58531;59.050;17.416;2023-05-03T00:46:50;101279.13;;;0.88;100.00
12666;BME280;58531;59.050;17.416;2023-05-03T00:49:17;101283.19;;;0.85;100.00
12666;BME280;58531;59.050;17.416;2023-05-03T00:51:44;101289.16;;;0.82;100.00
12666;BME280;58531;59.050;17.416;2023-05-03T00:54:12;101289.53;;;0.81;100.00
12666;BME280;58531;59.050;17.416;2023-05-03T00:56:40;101290.69;;;0.83;100.00
12666;BME280;58531;59.050;17.416;2023-05-03T00:59:07;101294.00;;;0.80;100.00
12666;BME280;58531;59.050;17.416;2023-05-03T01:01:34;101292.50;;;0.79;100.00
12666;BME280;58531;59.050;17.416;2023-05-03T01:04:01;101302.22;;;0.75;100.00
12666;BME280;58531;59.050;17.416;2023-05-03T01:06:33;101307.06;;;0.73;100.00
12666;BME280;58531;59.050;17.416;2023-05-03T01:09:05;101310.72;;;0.69;100.00
12666;BME280;58531;59.050;17.416;2023-05-03T01:11:44;101314.41;;;0.64;100.00
12666;BME280;58531;59.050;17.416;2023-05-03T01:14:21;101316.97;;;0.61;100.00
12666;BME280;58531;59.050;17.416;2023-05-03T01:16:52;101317.66;;;0.58;100.00
12666;BME280;58531;59.050;17.416;2023-05-03T01:19:28;101307.13;;;0.54;100.00
12666;BME280;58531;59.050;17.416;2023-05-03T01:24:45;101319.25;;;0.40;100.00
12666;BME280;58531;59.050;17.416;2023-05-03T01:27:14;101318.75;;;0.34;100.00
12666;BME280;58531;59.050;17.416;2023-05-03T01:29:41;101319.81;;;0.30;100.00
12666;BME280;58531;59.050;17.416;2023-05-03T01:32:12;101324.66;;;0.28;100.00
12666;BME280;58531;59.050;17.416;2023-05-03T01:34:44;101317.84;;;0.23;100.00
12666;BME280;58531;59.050;17.416;2023-05-03T01:37:14;101317.00;;;0.19;100.00
12666;BME280;58531;59.050;17.416;2023-05-03T01:39:45;101318.81;;;0.15;100.00
12666;BME280;58531;59.050;17.416;2023-05-03T01:42:16;101323.66;;;0.13;100.00
12666;BME280;58531;59.050;17.416;2023-05-03T01:44:43;101322.03;;;0.09;100.00
12666;BME280;58531;59.050;17.416;2023-05-03T01:47:11;101323.44;;;0.03;100.00
12666;BME280;58531;59.050;17.416;2023-05-03T01:49:39;101326.06;;;0.03;100.00
12666;BME280;58531;59.050;17.416;2023-05-03T01:52:06;101323.78;;;0.01;100.00
12666;BME280;58531;59.050;17.416;2023-05-03T01:54:33;101324.91;;;0.00;100.00
12666;BME280;58531;59.050;17.416;2023-05-03T01:57:00;101326.28;;;-0.05;100.00
12666;BME280;58531;59.050;17.416;2023-05-03T01:59:28;101326.13;;;-0.12;100.00
12666;BME280;58531;59.050;17.416;2023-05-03T02:01:55;101326.00;;;-0.19;100.00
12666;BME280;58531;59.050;17.416;2023-05-03T02:04:22;101323.56;;;-0.28;100.00
12666;BME280;58531;59.050;17.416;2023-05-03T02:06:49;101326.06;;;-0.35;100.00
12666;BME280;58531;59.050;17.416;2023-05-03T02:09:17;101332.25;;;-0.43;100.00
12666;BME280;58531;59.050;17.416;2023-05-03T02:11:44;101329.09;;;-0.52;100.00
12666;BME280;58531;59.050;17.416;2023-05-03T02:14:10;101330.88;;;-0.56;100.00
12666;BME280;58531;59.050;17.416;2023-05-03T02:16:39;101332.66;;;-0.60;100.00
12666;BME280;58531;59.050;17.416;2023-05-03T02:19:06;101331.03;;;-0.64;100.00
12666;BME280;58531;59.050;17.416;2023-05-03T02:21:33;101331.66;;;-0.71;100.00
12666;BME280;58531;59.050;17.416;2023-05-03T02:24:00;101339.44;;;-0.74;100.00
12666;BME280;58531;59.050;17.416;2023-05-03T02:26:27;101336.38;;;-0.76;100.00
12666;BME280;58531;59.050;17.416;2023-05-03T02:28:53;101336.13;;;-0.71;100.00
12666;BME280;58531;59.050;17.416;2023-05-03T02:31:22;101342.47;;;-0.72;100.00
12666;BME280;58531;59.050;17.416;2023-05-03T02:33:50;101338.31;;;-0.73;100.00
12666;BME280;58531;59.050;17.416;2023-05-03T02:36:19;101339.59;;;-0.67;100.00
12666;BME280;58531;59.050;17.416;2023-05-03T02:38:46;101341.13;;;-0.66;100.00
12666;BME280;58531;59.050;17.416;2023-05-03T02:41:13;101349.75;;;-0.66;100.00
12666;BME280;58531;59.050;17.416;2023-05-03T02:43:40;101342.22;;;-0.67;100.00
12666;BME280;58531;59.050;17.416;2023-05-03T02:46:07;101347.47;;;-0.67;100.00
12666;BME280;58531;59.050;17.416;2023-05-03T02:48:33;101350.44;;;-0.69;100.00
12666;BME280;58531;59.050;17.416;2023-05-03T02:51:02;101352.69;;;-0.67;100.00
12666;BME280;58531;59.050;17.416;2023-05-03T02:53:29;101351.59;;;-0.66;100.00
12666;BME280;58531;59.050;17.416;2023-05-03T02:55:56;101351.97;;;-0.68;100.00
12666;BME280;58531;59.050;17.416;2023-05-03T02:58:23;101349.75;;;-0.66;100.00
12666;BME280;58531;59.050;17.416;2023-05-03T03:00:50;101352.03;;;-0.64;100.00
12666;BME280;58531;59.050;17.416;2023-05-03T03:03:17;101354.31;;;-0.63;100.00
12666;BME280;58531;59.050;17.416;2023-05-03T03:05:44;101361.09;;;-0.62;100.00
12666;BME280;58531;59.050;17.416;2023-05-03T03:08:12;101357.00;;;-0.59;100.00
12666;BME280;58531;59.050;17.416;2023-05-03T03:10:39;101362.66;;;-0.57;100.00
12666;BME280;58531;59.050;17.416;2023-05-03T03:13:06;101361.25;;;-0.55;100.00
12666;BME280;58531;59.050;17.416;2023-05-03T03:15:32;101355.22;;;-0.55;100.00
12666;BME280;58531;59.050;17.416;2023-05-03T03:17:59;101359.78;;;-0.52;100.00
12666;BME280;58531;59.050;17.416;2023-05-03T03:20:26;101360.28;;;-0.47;100.00
12666;BME280;58531;59.050;17.416;2023-05-03T03:22:53;101368.66;;;-0.41;100.00
12666;BME280;58531;59.050;17.416;2023-05-03T03:25:22;101377.38;;;-0.37;100.00
12666;BME280;58531;59.050;17.416;2023-05-03T03:27:49;101372.94;;;-0.33;100.00
12666;BME280;58531;59.050;17.416;2023-05-03T03:30:16;101378.34;;;-0.26;100.00
12666;BME280;58531;59.050;17.416;2023-05-03T03:32:42;101377.63;;;-0.23;100.00
12666;BME280;58531;59.050;17.416;2023-05-03T03:35:09;101374.69;;;-0.22;100.00
12666;BME280;58531;59.050;17.416;2023-05-03T03:37:36;101383.72;;;-0.19;100.00
12666;BME280;58531;59.050;17.416;2023-05-03T03:40:05;101371.81;;;-0.17;100.00
12666;BME280;58531;59.050;17.416;2023-05-03T03:42:34;101380.94;;;-0.11;100.00
12666;BME280;58531;59.050;17.416;2023-05-03T03:45:01;101378.50;;;-0.01;100.00
12666;BME280;58531;59.050;17.416;2023-05-03T03:47:29;101382.44;;;0.09;100.00
12666;BME280;58531;59.050;17.416;2023-05-03T03:49:55;101386.88;;;0.24;100.00
12666;BME280;58531;59.050;17.416;2023-05-03T03:52:23;101381.88;;;0.38;100.00
12666;BME280;58531;59.050;17.416;2023-05-03T03:54:49;101386.34;;;0.56;100.00
12666;BME280;58531;59.050;17.416;2023-05-03T03:57:16;101399.94;;;1.03;100.00
12666;BME280;58531;59.050;17.416;2023-05-03T03:59:44;101400.88;;;1.92;100.00
12666;BME280;58531;59.050;17.416;2023-05-03T04:02:11;101398.25;;;2.97;100.00
12666;BME280;58531;59.050;17.416;2023-05-03T04:04:38;101402.66;;;3.94;100.00
12666;BME280;58531;59.050;17.416;2023-05-03T04:07:06;101409.00;;;5.34;100.00
12666;BME280;58531;59.050;17.416;2023-05-03T04:09:33;101416.53;;;6.70;91.63
12666;BME280;58531;59.050;17.416;2023-05-03T04:12:00;101408.41;;;7.78;76.94
12666;BME280;58531;59.050;17.416;2023-05-03T04:14:27;101406.06;;;8.47;73.46
12666;BME280;58531;59.050;17.416;2023-05-03T04:16:56;101414.31;;;9.32;69.14
12666;BME280;58531;59.050;17.416;2023-05-03T04:19:23;101422.69;;;9.53;65.78
12666;BME280;58531;59.050;17.416;2023-05-03T04:21:50;101429.47;;;9.57;63.91
12666;BME280;58531;59.050;17.416;2023-05-03T04:24:17;101436.19;;;10.08;62.32
12666;BME280;58531;59.050;17.416;2023-05-03T04:26:44;101436.53;;;9.87;61.68
12666;BME280;58531;59.050;17.416;2023-05-03T04:29:11;101432.28;;;10.83;59.91
12666;BME280;58531;59.050;17.416;2023-05-03T04:31:38;101441.81;;;10.84;59.26
12666;BME280;58531;59.050;17.416;2023-05-03T04:34:07;101435.97;;;10.89;57.15
12666;BME280;58531;59.050;17.416;2023-05-03T04:36:35;101449.53;;;10.62;57.22
12666;BME280;58531;59.050;17.416;2023-05-03T04:39:02;101449.97;;;10.42;58.85
12666;BME280;58531;59.050;17.416;2023-05-03T04:41:30;101450.75;;;10.03;59.92
12666;BME280;58531;59.050;17.416;2023-05-03T04:43:57;101447.53;;;9.69;60.63
12666;BME280;58531;59.050;17.416;2023-05-03T04:46:24;101446.13;;;9.42;62.86
12666;BME280;58531;59.050;17.416;2023-05-03T04:48:51;101449.88;;;9.44;62.67
12666;BME280;58531;59.050;17.416;2023-05-03T04:51:19;101455.69;;;10.24;59.28
12666;BME280;58531;59.050;17.416;2023-05-03T04:53:46;101460.47;;;10.68;58.57
12666;BME280;58531;59.050;17.416;2023-05-03T04:56:13;101470.69;;;11.53;53.71
12666;BME280;58531;59.050;17.416;2023-05-03T04:58:40;101466.72;;;13.33;51.62
12666;BME280;58531;59.050;17.416;2023-05-03T05:01:06;101464.56;;;12.66;51.32
12666;BME280;58531;59.050;17.416;2023-05-03T05:03:33;101475.81;;;13.82;47.31
12666;BME280;58531;59.050;17.416;2023-05-03T05:06:00;101475.81;;;14.76;46.72
12666;BME280;58531;59.050;17.416;2023-05-03T05:08:28;101475.94;;;15.78;41.63
12666;BME280;58531;59.050;17.416;2023-05-03T05:10:55;101478.00;;;15.65;42.68
12666;BME280;58531;59.050;17.416;2023-05-03T05:13:22;101490.03;;;17.01;40.67
12666;BME280;58531;59.050;17.416;2023-05-03T05:15:49;101479.78;;;16.81;39.28
12666;BME280;58531;59.050;17.416;2023-05-03T05:18:16;101483.03;;;16.94;38.00
12666;BME280;58531;59.050;17.416;2023-05-03T05:20:43;101482.81;;;15.79;38.99
12666;BME280;58531;59.050;17.416;2023-05-03T05:23:10;101481.59;;;15.89;38.49
12666;BME280;58531;59.050;17.416;2023-05-03T05:25:38;101486.06;;;16.19;38.64
12666;BME280;58531;59.050;17.416;2023-05-03T05:28:05;101484.13;;;16.38;38.69
12666;BME280;58531;59.050;17.416;2023-05-03T05:30:32;101492.59;;;17.28;36.75
12666;BME280;58531;59.050;17.416;2023-05-03T05:32:59;101495.31;;;16.95;37.62
12666;BME280;58531;59.050;17.416;2023-05-03T05:35:26;101501.06;;;19.26;32.83
12666;BME280;58531;59.050;17.416;2023-05-03T05:37:53;101496.31;;;18.73;33.54
12666;BME280;58531;59.050;17.416;2023-05-03T05:40:20;101496.53;;;17.88;35.99
12666;BME280;58531;59.050;17.416;2023-05-03T05:42:48;101506.50;;;18.63;33.40
12666;BME280;58531;59.050;17.416;2023-05-03T05:45:15;101505.31;;;18.35;34.25
12666;BME280;58531;59.050;17.416;2023-05-03T05:47:42;101513.66;;;19.89;31.63
12666;BME280;58531;59.050;17.416;2023-05-03T05:50:10;101508.00;;;20.69;29.25
12666;BME280;58531;59.050;17.416;2023-05-03T05:52:37;101500.44;;;18.25;32.24
12666;BME280;58531;59.050;17.416;2023-05-03T05:55:04;101508.03;;;17.27;33.19
12666;BME280;58531;59.050;17.416;2023-05-03T05:57:32;101507.50;;;18.08;33.43
12666;BME280;58531;59.050;17.416;2023-05-03T06:00:00;101507.03;;;18.24;33.60
12666;BME280;58531;59.050;17.416;2023-05-03T06:02:33;101512.31;;;17.43;34.96
12666;BME280;58531;59.050;17.416;2023-05-03T06:05:00;101518.72;;;19.56;32.99
12666;BME280;58531;59.050;17.416;2023-05-03T06:07:28;101522.91;;;20.23;31.12
12666;BME280;58531;59.050;17.416;2023-05-03T06:09:55;101526.13;;;21.55;29.26
12666;BME280;58531;59.050;17.416;2023-05-03T06:12:22;101525.28;;;20.15;31.31
12666;BME280;58531;59.050;17.416;2023-05-03T06:14:48;101513.34;;;20.27;28.82
12666;BME280;58531;59.050;17.416;2023-05-03T06:17:17;101511.34;;;21.15;28.98
12666;BME280;58531;59.050;17.416;2023-05-03T06:19:43;101513.13;;;19.85;30.58
12666;BME280;58531;59.050;17.416;2023-05-03T06:22:13;101524.81;;;20.73;29.44
12666;BME280;58531;59.050;17.416;2023-05-03T06:24:40;101524.16;;;20.52;28.58
12666;BME280;58531;59.050;17.416;2023-05-03T06:27:06;101530.75;;;19.95;29.74
12666;BME280;58531;59.050;17.416;2023-05-03T06:29:33;101530.00;;;20.40;29.69
12666;BME280;58531;59.050;17.416;2023-05-03T06:32:00;101531.16;;;20.59;29.77
12666;BME280;58531;59.050;17.416;2023-05-03T06:34:28;101531.28;;;19.79;28.80
12666;BME280;58531;59.050;17.416;2023-05-03T06:36:55;101542.38;;;18.20;31.54
12666;BME280;58531;59.050;17.416;2023-05-03T06:39:22;101535.84;;;18.99;31.84
12666;BME280;58531;59.050;17.416;2023-05-03T06:41:49;101547.16;;;19.86;30.93
12666;BME280;58531;59.050;17.416;2023-05-03T06:44:16;101553.81;;;20.56;28.75
12666;BME280;58531;59.050;17.416;2023-05-03T06:46:43;101554.69;;;19.08;29.55
12666;BME280;58531;59.050;17.416;2023-05-03T06:49:09;101550.69;;;19.52;29.52
12666;BME280;58531;59.050;17.416;2023-05-03T06:51:38;101556.69;;;20.47;29.87
12666;BME280;58531;59.050;17.416;2023-05-03T06:54:05;101563.41;;;21.49;28.22
12666;BME280;58531;59.050;17.416;2023-05-03T06:56:34;101563.91;;;22.06;25.43
12666;BME280;58531;59.050;17.416;2023-05-03T06:59:01;101561.88;;;21.43;26.48
12666;BME280;58531;59.050;17.416;2023-05-03T07:01:28;101561.44;;;21.55;26.50
12666;BME280;58531;59.050;17.416;2023-05-03T07:03:55;101571.72;;;21.82;26.49
12666;BME280;58531;59.050;17.416;2023-05-03T07:06:22;101574.06;;;20.55;28.39
12666;BME280;58531;59.050;17.416;2023-05-03T07:08:51;101574.44;;;19.43;29.07
12666;BME280;58531;59.050;17.416;2023-05-03T07:11:18;101575.94;;;21.36;27.14
12666;BME280;58531;59.050;17.416;2023-05-03T07:13:48;101582.00;;;19.93;28.05
12666;BME280;58531;59.050;17.416;2023-05-03T07:16:15;101582.75;;;20.90;26.19
12666;BME280;58531;59.050;17.416;2023-05-03T07:18:42;101574.75;;;19.30;28.30
12666;BME280;58531;59.050;17.416;2023-05-03T07:21:09;101582.00;;;20.13;28.87
12666;BME280;58531;59.050;17.416;2023-05-03T07:23:35;101588.50;;;20.21;28.11
12666;BME280;58531;59.050;17.416;2023-05-03T07:26:04;101586.72;;;20.18;29.35
12666;BME280;58531;59.050;17.416;2023-05-03T07:28:31;101583.19;;;20.83;27.08
12666;BME280;58531;59.050;17.416;2023-05-03T07:30:57;101582.16;;;19.50;28.67
12666;BME280;58531;59.050;17.416;2023-05-03T07:33:25;101584.97;;;18.92;30.56
12666;BME280;58531;59.050;17.416;2023-05-03T07:35:52;101591.47;;;20.23;29.33
12666;BME280;58531;59.050;17.416;2023-05-03T07:38:18;101594.31;;;20.14;27.92
12666;BME280;58531;59.050;17.416;2023-05-03T07:40:45;101593.38;;;19.08;28.47
12666;BME280;58531;59.050;17.416;2023-05-03T07:43:14;101596.72;;;18.75;29.84
12666;BME280;58531;59.050;17.416;2023-05-03T07:45:41;101602.25;;;18.95;29.50
12666;BME280;58531;59.050;17.416;2023-05-03T07:48:07;101600.09;;;19.82;27.67
12666;BME280;58531;59.050;17.416;2023-05-03T07:50:34;101595.03;;;18.63;29.19
12666;BME280;58531;59.050;17.416;2023-05-03T07:53:01;101603.84;;;17.96;29.63
12666;BME280;58531;59.050;17.416;2023-05-03T07:55:28;101607.19;;;16.23;36.07
12666;BME280;58531;59.050;17.416;2023-05-03T07:57:57;101598.00;;;15.27;34.18
12666;BME280;58531;59.050;17.416;2023-05-03T08:00:25;101600.09;;;14.71;36.15
12666;BME280;58531;59.050;17.416;2023-05-03T08:02:53;101604.47;;;13.89;37.17
12666;BME280;58531;59.050;17.416;2023-05-03T08:05:20;101606.97;;;13.21;39.33
12666;BME280;58531;59.050;17.416;2023-05-03T08:07:47;101609.13;;;12.85;39.03
12666;BME280;58531;59.050;17.416;2023-05-03T08:10:14;101611.81;;;12.28;40.53
12666;BME280;58531;59.050;17.416;2023-05-03T08:12:42;101606.97;;;12.23;42.59
12666;BME280;58531;59.050;17.416;2023-05-03T08:15:10;101617.16;;;12.44;44.31
12666;BME280;58531;59.050;17.416;2023-05-03T08:17:43;101612.63;;;12.41;40.83
12666;BME280;58531;59.050;17.416;2023-05-03T08:20:11;101613.00;;;12.56;40.21
12666;BME280;58531;59.050;17.416;2023-05-03T08:22:39;101620.84;;;12.34;40.19
12666;BME280;58531;59.050;17.416;2023-05-03T08:25:06;101616.63;;;12.49;42.96
12666;BME280;58531;59.050;17.416;2023-05-03T08:27:33;101612.78;;;12.06;41.39
12666;BME280;58531;59.050;17.416;2023-05-03T08:30:00;101614.31;;;12.35;41.98
12666;BME280;58531;59.050;17.416;2023-05-03T08:32:27;101617.81;;;12.04;41.38
12666;BME280;58531;59.050;17.416;2023-05-03T08:34:56;101617.22;;;12.41;39.59
12666;BME280;58531;59.050;17.416;2023-05-03T08:37:23;101624.06;;;12.13;39.22
12666;BME280;58531;59.050;17.416;2023-05-03T08:39:50;101625.88;;;12.32;40.07
12666;BME280;58531;59.050;17.416;2023-05-03T08:42:17;101621.22;;;12.04;39.03
12666;BME280;58531;59.050;17.416;2023-05-03T08:44:45;101627.91;;;12.12;41.52
12666;BME280;58531;59.050;17.416;2023-05-03T08:47:14;101617.88;;;12.16;38.86
12666;BME280;58531;59.050;17.416;2023-05-03T08:49:42;101628.56;;;12.16;41.17
12666;BME280;58531;59.050;17.416;2023-05-03T08:52:13;101624.06;;;12.13;39.48
12666;BME280;58531;59.050;17.416;2023-05-03T08:54:42;101628.56;;;12.16;39.73
12666;BME280;58531;59.050;17.416;2023-05-03T08:57:10;101631.25;;;12.16;39.08
12666;BME280;58531;59.050;17.416;2023-05-03T08:59:46;101640.44;;;12.31;38.98
12666;BME280;58531;59.050;17.416;2023-05-03T09:02:13;101637.72;;;11.87;38.21
12666;BME280;58531;59.050;17.416;2023-05-03T09:04:41;101642.41;;;12.15;38.43
12666;BME280;58531;59.050;17.416;2023-05-03T09:07:08;101649.56;;;12.34;39.83
12666;BME280;58531;59.050;17.416;2023-05-03T09:09:37;101648.16;;;12.13;38.30
12666;BME280;58531;59.050;17.416;2023-05-03T09:12:04;101651.84;;;11.72;39.57
12666;BME280;58531;59.050;17.416;2023-05-03T09:14:41;101656.59;;;11.64;38.56
12666;BME280;58531;59.050;17.416;2023-05-03T09:17:16;101660.91;;;11.23;39.58
12666;BME280;58531;59.050;17.416;2023-05-03T09:19:51;101645.44;;;11.14;39.35
12666;BME280;58531;59.050;17.416;2023-05-03T09:22:19;101656.50;;;11.32;40.35
12666;BME280;58531;59.050;17.416;2023-05-03T09:24:55;101659.38;;;11.77;40.13
12666;BME280;58531;59.050;17.416;2023-05-03T09:27:23;101654.56;;;11.52;37.78
12666;BME280;58531;59.050;17.416;2023-05-03T09:29:50;101663.19;;;11.60;38.71
12666;BME280;58531;59.050;17.416;2023-05-03T09:32:18;101657.56;;;11.89;41.37
12666;BME280;58531;59.050;17.416;2023-05-03T09:34:46;101669.25;;;11.79;37.44
12666;BME280;58531;59.050;17.416;2023-05-03T09:37:13;101666.16;;;11.46;39.56
12666;BME280;58531;59.050;17.416;2023-05-03T09:39:41;101663.16;;;11.24;39.09
12666;BME280;58531;59.050;17.416;2023-05-03T09:42:14;101666.63;;;10.86;40.16
12666;BME280;58531;59.050;17.416;2023-05-03T09:44:43;101657.47;;;10.64;41.47
12666;BME280;58531;59.050;17.416;2023-05-03T09:47:10;101661.41;;;10.79;42.05
12666;BME280;58531;59.050;17.416;2023-05-03T09:49:38;101667.84;;;11.01;42.04
12666;BME280;58531;59.050;17.416;2023-05-03T09:52:05;101675.16;;;11.36;39.30
12666;BME280;58531;59.050;17.416;2023-05-03T09:54:33;101672.00;;;11.41;39.07
12666;BME280;58531;59.050;17.416;2023-05-03T09:57:01;101674.91;;;11.66;41.46
12666;BME280;58531;59.050;17.416;2023-05-03T09:59:31;101667.06;;;12.06;40.19
12666;BME280;58531;59.050;17.416;2023-05-03T10:02:00;101666.75;;;11.88;38.94
12666;BME280;58531;59.050;17.416;2023-05-03T10:04:28;101667.50;;;11.89;39.47
12666;BME280;58531;59.050;17.416;2023-05-03T10:07:03;101673.16;;;11.75;37.36
12666;BME280;58531;59.050;17.416;2023-05-03T10:09:35;101662.50;;;11.20;38.91
12666;BME280;58531;59.050;17.416;2023-05-03T10:12:07;101673.16;;;11.40;40.00
12666;BME280;58531;59.050;17.416;2023-05-03T10:14:39;101680.59;;;11.68;40.13
12666;BME280;58531;59.050;17.416;2023-05-03T10:17:10;101675.69;;;11.47;38.01
12666;BME280;58531;59.050;17.416;2023-05-03T10:19:46;101684.56;;;11.44;40.35
12666;BME280;58531;59.050;17.416;2023-05-03T10:22:16;101685.78;;;11.39;38.88
12666;BME280;58531;59.050;17.416;2023-05-03T10:25:08;101686.44;;;11.63;39.67
12666;BME280;58531;59.050;17.416;2023-05-03T10:27:49;101678.81;;;11.26;38.82
12666;BME280;58531;59.050;17.416;2023-05-03T10:30:28;101682.53;;;10.93;41.21
12666;BME280;58531;59.050;17.416;2023-05-03T10:32:57;101679.50;;;11.30;39.59
12666;BME280;58531;59.050;17.416;2023-05-03T10:35:28;101682.03;;;10.98;38.98
12666;BME280;58531;59.050;17.416;2023-05-03T10:37:55;101681.53;;;10.64;39.38
12666;BME280;58531;59.050;17.416;2023-05-03T10:40:23;101678.13;;;11.02;39.48
12666;BME280;58531;59.050;17.416;2023-05-03T10:42:50;101686.66;;;11.52;38.67
12666;BME280;58531;59.050;17.416;2023-05-03T10:45:23;101691.41;;;11.45;39.26
12666;BME280;58531;59.050;17.416;2023-05-03T10:48:22;101691.69;;;11.31;38.07
12666;BME280;58531;59.050;17.416;2023-05-03T10:50:49;101683.53;;;11.54;37.99
12666;BME280;58531;59.050;17.416;2023-05-03T10:53:37;101691.00;;;11.81;39.01
12666;BME280;58531;59.050;17.416;2023-05-03T10:56:06;101694.69;;;12.19;38.24
12666;BME280;58531;59.050;17.416;2023-05-03T10:58:35;101700.72;;;12.07;36.79
12666;BME280;58531;59.050;17.416;2023-05-03T11:01:04;101699.75;;;11.66;37.99
12666;BME280;58531;59.050;17.416;2023-05-03T11:03:42;101692.84;;;11.30;38.84
12666;BME280;58531;59.050;17.416;2023-05-03T11:06:25;101698.13;;;11.14;38.87
12666;BME280;58531;59.050;17.416;2023-05-03T11:08:52;101705.25;;;11.40;38.57
12666;BME280;58531;59.050;17.416;2023-05-03T11:11:20;101707.25;;;12.22;38.96
12666;BME280;58531;59.050;17.416;2023-05-03T11:13:49;101711.59;;;12.93;36.61
12666;BME280;58531;59.050;17.416;2023-05-03T11:16:16;101713.44;;;12.96;34.73
12666;BME280;58531;59.050;17.416;2023-05-03T11:18:44;101715.41;;;12.63;35.79
12666;BME280;58531;59.050;17.416;2023-05-03T11:21:13;101705.00;;;12.21;35.59
12666;BME280;58531;59.050;17.416;2023-05-03T11:23:41;101702.06;;;12.47;34.12
12666;BME280;58531;59.050;17.416;2023-05-03T11:26:09;101707.13;;;12.58;35.37
12666;BME280;58531;59.050;17.416;2023-05-03T11:28:37;101696.91;;;12.69;34.28
12666;BME280;58531;59.050;17.416;2023-05-03T11:31:04;101711.94;;;12.79;34.51
12666;BME280;58531;59.050;17.416;2023-05-03T11:33:32;101707.91;;;11.94;34.52
12666;BME280;58531;59.050;17.416;2023-05-03T11:36:02;101707.94;;;11.75;36.39
12666;BME280;58531;59.050;17.416;2023-05-03T11:38:30;101705.56;;;11.80;36.11
12666;BME280;58531;59.050;17.416;2023-05-03T11:40:57;101704.69;;;11.68;36.51
12666;BME280;58531;59.050;17.416;2023-05-03T11:43:24;101709.13;;;11.74;36.59
12666;BME280;58531;59.050;17.416;2023-05-03T11:45:53;101712.50;;;11.94;36.80
12666;BME280;58531;59.050;17.416;2023-05-03T11:48:21;101714.28;;;12.16;35.81
12666;BME280;58531;59.050;17.416;2023-05-03T11:50:51;101711.38;;;12.55;35.55
12666;BME280;58531;59.050;17.416;2023-05-03T11:53:22;101719.97;;;12.34;35.45
12666;BME280;58531;59.050;17.416;2023-05-03T11:55:51;101712.28;;;12.36;34.02
12666;BME280;58531;59.050;17.416;2023-05-03T11:58:20;101718.09;;;12.63;34.77
12666;BME280;58531;59.050;17.416;2023-05-03T12:00:49;101722.16;;;12.39;34.99
12666;BME280;58531;59.050;17.416;2023-05-03T12:03:17;101712.66;;;12.51;34.54
12666;BME280;58531;59.050;17.416;2023-05-03T12:05:44;101713.22;;;12.58;32.68
12666;BME280;58531;59.050;17.416;2023-05-03T12:08:12;101703.81;;;12.98;33.17
12666;BME280;58531;59.050;17.416;2023-05-03T12:10:42;101710.03;;;13.61;32.11
12666;BME280;58531;59.050;17.416;2023-05-03T12:13:08;101709.28;;;13.98;32.90
12666;BME280;58531;59.050;17.416;2023-05-03T12:15:37;101713.56;;;14.08;31.91
12666;BME280;58531;59.050;17.416;2023-05-03T12:18:05;101717.19;;;14.51;31.95
12666;BME280;58531;59.050;17.416;2023-05-03T12:20:34;101716.50;;;14.93;30.52
12666;BME280;58531;59.050;17.416;2023-05-03T12:23:02;101720.09;;;14.78;31.48
12666;BME280;58531;59.050;17.416;2023-05-03T12:25:31;101725.41;;;14.22;29.51
12666;BME280;58531;59.050;17.416;2023-05-03T12:28:00;101717.66;;;14.12;30.03
12666;BME280;58531;59.050;17.416;2023-05-03T12:30:28;101723.31;;;14.51;30.33
12666;BME280;58531;59.050;17.416;2023-05-03T12:32:55;101725.50;;;14.65;31.37
12666;BME280;58531;59.050;17.416;2023-05-03T12:35:22;101719.34;;;14.31;29.84
12666;BME280;58531;59.050;17.416;2023-05-03T12:37:49;101720.13;;;13.94;31.50
12666;BME280;58531;59.050;17.416;2023-05-03T12:40:18;101729.13;;;13.50;31.00
12666;BME280;58531;59.050;17.416;2023-05-03T12:42:45;101736.25;;;13.69;31.39
12666;BME280;58531;59.050;17.416;2023-05-03T12:45:13;101729.91;;;13.76;31.39